Time;durP1;ratioP1;P1;durP2;ratioP2;P2;SDS_P1;SDS_P2;PMS_P1;PMS_P2;Temp;Humidity;BMP_temperature;BMP_pressure;BME280_temperature;BME280_humidity;BME280_pressure;Samples;Min_cycle;Max_cycle;Signal;HPM_P1;HPM_P2
2021/01/03 00:01:17;;;;;;;23.23;9.53;;;;;;;;;;10207449;28;20030;-64
2021/01/03 00:06:14;;;;;;;18.47;9.17;;;;;;;;;;10200982;28;20039;-64
2021/01/03 00:11:12;;;;;;;20.50;9.97;;;;;;;;;;10186911;28;20046;-64
2021/01/03 00:16:09;;;;;;;25.37;10.13;;;;;;;;;;10228346;28;20132;-64
2021/01/03 00:21:06;;;;;;;15.33;8.47;;;;;;;;;;10234636;28;20463;-64
2021/01/03 00:26:04;;;;;;;26.07;11.30;;;;;;;;;;10217187;28;20046;-64
2021/01/03 00:31:01;;;;;;;26.77;11.47;;;;;;;;;;10230406;28;20037;-64
2021/01/03 00:35:59;;;;;;;20.57;8.57;;;;;;;;;;10214826;28;20508;-65
2021/01/03 00:40:56;;;;;;;24.13;9.27;;;;;;;;;;10216025;28;20048;-64
2021/01/03 00:45:53;;;;;;;19.03;8.87;;;;;;;;;;10220193;28;20034;-65
2021/01/03 00:50:51;;;;;;;21.20;8.57;;;;;;;;;;10224968;28;20072;-65
2021/01/03 00:55:49;;;;;;;12.03;6.30;;;;;;;;;;10227279;28;20176;-64
2021/01/03 01:00:47;;;;;;;17.92;5.88;;;;;;;;;;10201531;28;20508;-64
2021/01/03 01:05:44;;;;;;;23.13;6.83;;;;;;;;;;10219734;28;20072;-65
2021/01/03 01:10:41;;;;;;;9.30;3.97;;;;;;;;;;10218980;28;20038;-64
2021/01/03 01:15:39;;;;;;;11.40;6.63;;;;;;;;;;10213964;28;20045;-63
2021/01/03 01:20:36;;;;;;;13.67;5.33;;;;;;;;;;10209540;28;20039;-64
2021/01/03 01:25:34;;;;;;;29.33;12.37;;;;;;;;;;10210340;28;20504;-63
2021/01/03 01:30:32;;;;;;;30.37;11.47;;;;;;;;;;10191035;28;20027;-65
2021/01/03 01:35:31;;;;;;;31.13;10.07;;;;;;;;;;10188153;28;20406;-65
2021/01/03 01:40:35;;;;;;;23.63;8.88;;;;;;;;;;10195078;28;20038;-64
2021/01/03 01:45:34;;;;;;;26.90;10.50;;;;;;;;;;10203785;28;20053;-65
2021/01/03 01:50:36;;;;;;;18.27;6.90;;;;;;;;;;10191191;28;20741;-65
2021/01/03 01:55:36;;;;;;;22.85;9.77;;;;;;;;;;10197081;28;20119;-66
2021/01/03 02:00:35;;;;;;;15.68;6.28;;;;;;;;;;10222231;28;20083;-66
2021/01/03 02:05:34;;;;;;;17.05;7.63;;;;;;;;;;10217866;28;20428;-65
2021/01/03 02:10:43;;;;;;;31.05;7.15;;;;;;;;;;10214053;28;20061;-65
2021/01/03 02:15:41;;;;;;;22.23;7.78;;;;;;;;;;10206457;28;20124;-65
2021/01/03 02:21:00;;;;;;;21.17;9.77;;;;;;;;;;10219035;28;20626;-66
2021/01/03 02:25:59;;;;;;;11.13;4.22;;;;;;;;;;10222845;28;20135;-66
2021/01/03 02:30:57;;;;;;;6.63;3.67;;;;;;;;;;10187833;28;20042;-65
2021/01/03 02:35:57;;;;;;;9.52;3.40;;;;;;;;;;10217960;28;20043;-65
2021/01/03 02:40:55;;;;;;;12.93;6.78;;;;;;;;;;10208320;28;20053;-65
2021/01/03 02:45:53;;;;;;;5.13;2.77;;;;;;;;;;10183431;28;20045;-66
2021/01/03 02:50:51;;;;;;;12.57;5.75;;;;;;;;;;10216979;28;20046;-65
2021/01/03 02:55:48;;;;;;;13.00;6.07;;;;;;;;;;10184270;28;20046;-65
2021/01/03 03:00:46;;;;;;;15.83;6.03;;;;;;;;;;10203686;28;20038;-64
2021/01/03 03:05:43;;;;;;;16.80;5.53;;;;;;;;;;10206757;28;20039;-65
2021/01/03 03:10:40;;;;;;;17.73;8.77;;;;;;;;;;10187054;28;20039;-64
2021/01/03 03:15:38;;;;;;;16.57;6.30;;;;;;;;;;10201446;28;20176;-64
2021/01/03 03:20:36;;;;;;;6.67;4.10;;;;;;;;;;10188695;28;20034;-64
2021/01/03 03:25:33;;;;;;;13.68;6.15;;;;;;;;;;10217771;28;20049;-63
2021/01/03 03:30:30;;;;;;;13.87;5.70;;;;;;;;;;10207351;28;20030;-66
2021/01/03 03:35:29;;;;;;;8.87;4.63;;;;;;;;;;10181700;28;20038;-65
2021/01/03 03:40:27;;;;;;;15.55;6.95;;;;;;;;;;10205401;28;20026;-65
2021/01/03 03:45:24;;;;;;;14.30;6.37;;;;;;;;;;10203546;28;20032;-65
2021/01/03 03:50:23;;;;;;;23.50;10.70;;;;;;;;;;10204999;28;20039;-64
2021/01/03 03:55:20;;;;;;;12.00;5.30;;;;;;;;;;10208240;28;20117;-64
2021/01/03 04:00:19;;;;;;;13.07;5.10;;;;;;;;;;10201914;28;20097;-65
2021/01/03 04:05:23;;;;;;;21.83;11.23;;;;;;;;;;10213934;28;20050;-65
2021/01/03 04:10:21;;;;;;;17.20;6.80;;;;;;;;;;10204203;28;20046;-65
2021/01/03 04:15:18;;;;;;;10.33;7.37;;;;;;;;;;10208981;28;20528;-64
2021/01/03 04:20:17;;;;;;;14.23;5.60;;;;;;;;;;10206276;28;20030;-65
2021/01/03 04:25:15;;;;;;;27.15;9.75;;;;;;;;;;10214321;28;20050;-65
2021/01/03 04:30:14;;;;;;;16.67;6.67;;;;;;;;;;10206830;28;20035;-64
2021/01/03 04:35:11;;;;;;;11.85;5.68;;;;;;;;;;10204867;28;20752;-62
2021/01/03 04:40:15;;;;;;;19.67;6.23;;;;;;;;;;10205720;28;20120;-64
2021/01/03 04:45:16;;;;;;;25.33;9.48;;;;;;;;;;10217878;28;20038;-64
2021/01/03 04:50:23;;;;;;;13.10;5.70;;;;;;;;;;10197965;28;20039;-65
2021/01/03 04:55:22;;;;;;;21.13;8.00;;;;;;;;;;10187042;28;20048;-65
2021/01/03 05:00:19;;;;;;;22.70;7.47;;;;;;;;;;10196040;28;20093;-65
2021/01/03 05:05:29;;;;;;;15.10;5.47;;;;;;;;;;10176198;28;20049;-65
2021/01/03 05:10:27;;;;;;;17.95;8.48;;;;;;;;;;10143126;28;20405;-63
2021/01/03 05:15:26;;;;;;;12.48;5.53;;;;;;;;;;10200645;28;20044;-64
2021/01/03 05:20:24;;;;;;;30.27;10.23;;;;;;;;;;10197147;28;20556;-64
2021/01/03 05:25:38;;;;;;;29.55;9.88;;;;;;;;;;10199143;28;20126;-65
2021/01/03 05:30:35;;;;;;;18.92;7.43;;;;;;;;;;10186566;28;20134;-63
2021/01/03 05:35:35;;;;;;;25.20;10.50;;;;;;;;;;10203063;28;20852;-63
2021/01/03 05:40:32;;;;;;;20.30;8.27;;;;;;;;;;10205762;28;20042;-63
2021/01/03 05:45:30;;;;;;;32.30;10.47;;;;;;;;;;10215712;28;20042;-62
2021/01/03 05:50:40;;;;;;;24.48;9.02;;;;;;;;;;10216096;28;20026;-64
2021/01/03 05:55:38;;;;;;;37.92;11.05;;;;;;;;;;10211560;28;20045;-64
2021/01/03 06:00:36;;;;;;;31.10;11.75;;;;;;;;;;10207393;28;20046;-61
2021/01/03 06:05:33;;;;;;;29.77;9.43;;;;;;;;;;10216725;28;20097;-62
2021/01/03 06:10:33;;;;;;;15.87;7.87;;;;;;;;;;10208678;28;20031;-62
2021/01/03 06:15:33;;;;;;;24.33;9.18;;;;;;;;;;10218762;28;20034;-65
2021/01/03 06:20:31;;;;;;;13.40;5.55;;;;;;;;;;10211822;28;20511;-63
2021/01/03 06:25:32;;;;;;;20.23;4.22;;;;;;;;;;10213578;28;20401;-62
2021/01/03 06:30:32;;;;;;;10.07;4.78;;;;;;;;;;10209751;28;20497;-63
2021/01/03 06:35:31;;;;;;;13.93;5.60;;;;;;;;;;10196615;28;20046;-62
2021/01/03 06:40:34;;;;;;;6.90;3.22;;;;;;;;;;10205685;28;20070;-62
2021/01/03 06:45:44;;;;;;;17.52;5.75;;;;;;;;;;10202264;28;20042;-62
2021/01/03 06:50:44;;;;;;;21.40;7.72;;;;;;;;;;10189951;28;20044;-64
2021/01/03 06:55:41;;;;;;;20.95;7.10;;;;;;;;;;10196223;28;20034;-64
2021/01/03 07:00:42;;;;;;;16.37;6.33;;;;;;;;;;10174517;28;20501;-63
2021/01/03 07:05:54;;;;;;;12.50;5.95;;;;;;;;;;10188556;28;20509;-64
2021/01/03 07:10:51;;;;;;;17.85;6.22;;;;;;;;;;10137773;28;20051;-64
2021/01/03 07:15:49;;;;;;;17.90;6.43;;;;;;;;;;10139221;28;20053;-64
2021/01/03 07:20:46;;;;;;;16.73;6.63;;;;;;;;;;10155660;28;20505;-63
2021/01/03 07:25:46;;;;;;;17.40;6.07;;;;;;;;;;10158161;28;20043;-64
2021/01/03 07:31:21;;;;;;;13.25;5.70;;;;;;;;;;10180744;28;20513;-63
2021/01/03 07:36:19;;;;;;;12.63;5.90;;;;;;;;;;10066384;29;20131;-62
2021/01/03 07:41:25;;;;;;;15.57;5.97;;;;;;;;;;10130945;28;20127;-63
2021/01/03 07:46:40;;;;;;;15.65;5.97;;;;;;;;;;10163053;28;20413;-64
2021/01/03 07:51:41;;;;;;;16.48;5.38;;;;;;;;;;10149162;28;20516;-64
2021/01/03 07:56:38;;;;;;;15.43;6.15;;;;;;;;;;10162652;28;20045;-65
2021/01/03 08:01:42;;;;;;;14.30;6.67;;;;;;;;;;10151935;28;20030;-66
2021/01/03 08:06:40;;;;;;;16.02;6.60;;;;;;;;;;10170878;28;20101;-65
2021/01/03 08:11:41;;;;;;;12.47;6.07;;;;;;;;;;10185089;28;20080;-65
2021/01/03 08:16:39;;;;;;;17.95;7.25;;;;;;;;;;10174132;28;20039;-64
2021/01/03 08:21:38;;;;;;;15.30;6.40;;;;;;;;;;10160666;28;20034;-65
2021/01/03 08:26:55;;;;;;;15.88;6.53;;;;;;;;;;10161000;28;20038;-65
2021/01/03 08:31:54;;;;;;;16.30;7.32;;;;;;;;;;10186031;28;20408;-65
2021/01/03 08:36:52;;;;;;;15.68;6.20;;;;;;;;;;10192854;28;20076;-65
2021/01/03 08:41:54;;;;;;;9.13;4.70;;;;;;;;;;10190636;28;20117;-66
2021/01/03 08:47:11;;;;;;;9.27;4.57;;;;;;;;;;10195518;28;20778;-65
2021/01/03 08:52:15;;;;;;;9.40;4.97;;;;;;;;;;10188553;28;20038;-65
2021/01/03 08:57:13;;;;;;;13.95;5.85;;;;;;;;;;10205350;28;20030;-64
2021/01/03 09:02:24;;;;;;;12.15;5.45;;;;;;;;;;10201436;28;20027;-65
2021/01/03 09:07:22;;;;;;;8.07;3.88;;;;;;;;;;10194273;28;20157;-65
2021/01/03 09:12:36;;;;;;;10.67;5.80;;;;;;;;;;10210574;28;20161;-66
2021/01/03 09:17:36;;;;;;;10.25;5.28;;;;;;;;;;10193700;28;20034;-64
2021/01/03 09:22:38;;;;;;;10.30;4.88;;;;;;;;;;10165508;28;20645;-65
2021/01/03 09:27:35;;;;;;;11.52;5.18;;;;;;;;;;10202912;28;20034;-64
2021/01/03 09:32:34;;;;;;;6.37;3.87;;;;;;;;;;10188209;28;20342;-66
2021/01/03 09:37:32;;;;;;;13.70;4.93;;;;;;;;;;10182590;28;20042;-66
2021/01/03 09:42:29;;;;;;;;;;;;;;;;;;10190380;28;20408;-66
2021/01/03 09:47:37;;;;;;;9.50;5.05;;;;;;;;;;10188483;28;19917;-65
2021/01/03 09:52:45;;;;;;;8.80;4.77;;;;;;;;;;10204656;28;20053;-65
2021/01/03 09:57:54;;;;;;;7.70;4.78;;;;;;;;;;10196440;28;20335;-66
2021/01/03 10:02:52;;;;;;;9.27;5.30;;;;;;;;;;10178316;28;20436;-65
2021/01/03 10:08:00;;;;;;;10.43;4.97;;;;;;;;;;10201248;28;20051;-65
2021/01/03 10:13:06;;;;;;;15.18;6.53;;;;;;;;;;10190691;28;20036;-65
2021/01/03 10:18:05;;;;;;;9.35;5.75;;;;;;;;;;10199857;28;20101;-64
2021/01/03 10:23:03;;;;;;;11.52;5.85;;;;;;;;;;10188919;28;20066;-64
2021/01/03 10:28:05;;;;;;;7.38;4.25;;;;;;;;;;10170325;28;20568;-64
2021/01/03 10:33:03;;;;;;;11.52;4.50;;;;;;;;;;10204553;28;20591;-65
2021/01/03 10:38:04;;;;;;;9.67;4.30;;;;;;;;;;10202408;28;20137;-65
2021/01/03 10:43:02;;;;;;;9.63;4.32;;;;;;;;;;10189712;28;20039;-64
2021/01/03 10:47:59;;;;;;;9.77;4.73;;;;;;;;;;10187535;28;20038;-63
2021/01/03 10:52:57;;;;;;;4.67;3.17;;;;;;;;;;10191082;28;20069;-63
2021/01/03 10:57:57;;;;;;;9.13;4.53;;;;;;;;;;10212966;28;20042;-63
2021/01/03 11:02:54;;;;;;;12.23;4.38;;;;;;;;;;10173391;28;20093;-63
2021/01/03 11:07:51;;;;;;;10.73;4.77;;;;;;;;;;10172133;28;20035;-63
2021/01/03 11:12:49;;;;;;;9.67;4.97;;;;;;;;;;10192703;28;20038;-63
2021/01/03 11:17:46;;;;;;;9.70;4.93;;;;;;;;;;10191723;28;20573;-63
2021/01/03 11:22:43;;;;;;;12.00;6.13;;;;;;;;;;10213134;28;20030;-63
2021/01/03 11:27:41;;;;;;;8.40;5.00;;;;;;;;;;10199919;28;21989;-64
2021/01/03 11:32:38;;;;;;;8.40;4.50;;;;;;;;;;10210433;28;20084;-65
2021/01/03 11:37:35;;;;;;;10.27;5.10;;;;;;;;;;10207530;28;20057;-64
2021/01/03 11:42:35;;;;;;;9.43;5.27;;;;;;;;;;10182139;28;20034;-64
2021/01/03 11:47:33;;;;;;;7.07;4.13;;;;;;;;;;10200703;28;20391;-64
2021/01/03 11:52:31;;;;;;;7.80;5.20;;;;;;;;;;10205658;28;20032;-65
2021/01/03 11:57:28;;;;;;;8.23;4.03;;;;;;;;;;10212334;28;20023;-65
2021/01/03 12:02:27;;;;;;;6.23;3.30;;;;;;;;;;10187626;28;20022;-63
2021/01/03 12:07:25;;;;;;;8.23;3.60;;;;;;;;;;10166649;28;20117;-65
2021/01/03 12:12:22;;;;;;;5.57;3.17;;;;;;;;;;10190853;28;20121;-66
2021/01/03 12:17:21;;;;;;;4.37;2.53;;;;;;;;;;10201834;28;20018;-65
2021/01/03 12:22:19;;;;;;;9.95;3.13;;;;;;;;;;10154893;28;20910;-65
2021/01/03 12:27:17;;;;;;;4.37;3.00;;;;;;;;;;10206841;28;20030;-65
2021/01/03 12:32:14;;;;;;;7.10;2.50;;;;;;;;;;10187161;28;20046;-65
2021/01/03 12:37:14;;;;;;;6.10;2.60;;;;;;;;;;10186894;28;20042;-64
2021/01/03 12:42:13;;;;;;;4.38;3.00;;;;;;;;;;10185977;28;20069;-64
2021/01/03 12:47:10;;;;;;;5.20;3.15;;;;;;;;;;10156149;28;20050;-64
2021/01/03 12:52:08;;;;;;;6.53;3.30;;;;;;;;;;10160375;28;20035;-64
2021/01/03 12:57:05;;;;;;;7.27;2.57;;;;;;;;;;10158776;28;20034;-65
2021/01/03 13:02:03;;;;;;;5.07;2.73;;;;;;;;;;10157915;28;20223;-65
2021/01/03 13:07:00;;;;;;;3.97;2.20;;;;;;;;;;10155025;28;20043;-64
2021/01/03 13:11:58;;;;;;;4.27;2.83;;;;;;;;;;10177215;28;20055;-65
2021/01/03 13:16:55;;;;;;;3.93;2.40;;;;;;;;;;10142902;28;20035;-64
2021/01/03 13:21:52;;;;;;;4.13;2.63;;;;;;;;;;10184168;28;20035;-65
2021/01/03 13:26:51;;;;;;;6.57;2.20;;;;;;;;;;10206074;28;20066;-65
2021/01/03 13:31:48;;;;;;;;;;;;;;;;;;10166937;28;20038;-64
2021/01/03 13:36:46;;;;;;;3.08;2.10;;;;;;;;;;10196021;28;19925;-64
2021/01/03 13:41:43;;;;;;;3.30;1.60;;;;;;;;;;10191910;28;20396;-64
2021/01/03 13:46:41;;;;;;;3.87;1.93;;;;;;;;;;10159970;28;20049;-64
2021/01/03 13:51:38;;;;;;;3.43;1.87;;;;;;;;;;10202485;28;20038;-65
2021/01/03 13:56:36;;;;;;;2.47;1.70;;;;;;;;;;10211514;22;20057;-62
2021/01/03 14:01:35;;;;;;;2.20;2.00;;;;;;;;;;10282853;28;20033;-58
2021/01/03 14:06:33;;;;;;;2.15;1.58;;;;;;;;;;10318747;28;20406;-56
2021/01/03 14:11:30;;;;;;;3.33;1.70;;;;;;;;;;10311781;28;20041;-60
2021/01/03 14:16:29;;;;;;;2.10;1.73;;;;;;;;;;10324119;28;20045;-59
2021/01/03 14:21:30;;;;;;;2.88;1.70;;;;;;;;;;10312312;28;20094;-57
2021/01/03 14:26:54;;;;;;;4.93;1.90;;;;;;;;;;10303596;28;20029;-61
2021/01/03 14:31:53;;;;;;;4.15;1.80;;;;;;;;;;10313379;22;20090;-64
2021/01/03 14:36:50;;;;;;;;;;;;;;;;;;10341782;28;20044;-67
2021/01/03 14:41:48;;;;;;;2.37;1.90;;;;;;;;;;10324473;28;19912;-65
2021/01/03 14:46:45;;;;;;;2.20;1.17;;;;;;;;;;10327301;28;20284;-65
2021/01/03 14:52:02;;;;;;;2.60;1.93;;;;;;;;;;10311595;28;20592;-65
2021/01/03 14:57:00;;;;;;;1.70;1.48;;;;;;;;;;10311407;28;20306;-67
2021/01/03 15:01:57;;;;;;;;;;;;;;;;;;10310747;28;20117;-67
2021/01/03 15:07:00;;;;;;;3.38;1.98;;;;;;;;;;10315579;28;20008;-68
2021/01/03 15:12:00;;;;;;;2.78;2.00;;;;;;;;;;10308972;28;20544;-67
2021/01/03 15:17:12;;;;;;;2.05;1.48;;;;;;;;;;10320201;28;20124;-68
2021/01/03 15:22:12;;;;;;;3.20;2.05;;;;;;;;;;10312508;28;20132;-68
2021/01/03 15:27:16;;;;;;;3.75;2.65;;;;;;;;;;10295878;28;20509;-68
2021/01/03 15:32:13;;;;;;;2.25;1.73;;;;;;;;;;10301807;28;20415;-68
2021/01/03 15:37:37;;;;;;;2.70;1.70;;;;;;;;;;10281736;28;20420;-68
2021/01/03 15:42:41;;;;;;;2.95;2.05;;;;;;;;;;10313558;28;20044;-67
2021/01/03 15:47:41;;;;;;;2.90;1.80;;;;;;;;;;10317111;28;20044;-68
2021/01/03 15:52:41;;;;;;;3.35;2.00;;;;;;;;;;10319857;28;20045;-67
2021/01/03 15:57:39;;;;;;;3.25;2.03;;;;;;;;;;10319217;28;20033;-67
2021/01/03 16:02:40;;;;;;;6.88;2.22;;;;;;;;;;10309595;28;20546;-68
2021/01/03 16:07:39;;;;;;;2.80;1.77;;;;;;;;;;10308602;28;20037;-67
2021/01/03 16:12:36;;;;;;;2.97;2.08;;;;;;;;;;10320573;28;20049;-68
2021/01/03 16:17:34;;;;;;;2.13;1.83;;;;;;;;;;10316168;28;20116;-66
2021/01/03 16:22:51;;;;;;;2.50;1.93;;;;;;;;;;10315221;28;20074;-67
2021/01/03 16:28:04;;;;;;;5.22;2.65;;;;;;;;;;10298231;28;20125;-68
2021/01/03 16:33:04;;;;;;;4.03;2.47;;;;;;;;;;10313723;28;20036;-67
2021/01/03 16:38:11;;;;;;;1.48;1.35;;;;;;;;;;10309848;28;20076;-66
2021/01/03 16:43:08;;;;;;;4.03;2.25;;;;;;;;;;10313037;28;20037;-66
2021/01/03 16:48:06;;;;;;;3.47;1.97;;;;;;;;;;10312768;28;20045;-66
2021/01/03 16:53:17;;;;;;;7.20;2.33;;;;;;;;;;10319013;28;20049;-66
2021/01/03 16:58:21;;;;;;;4.30;2.17;;;;;;;;;;10310132;28;20120;-65
2021/01/03 17:03:32;;;;;;;3.35;2.30;;;;;;;;;;10292968;28;20033;-66
2021/01/03 17:08:36;;;;;;;4.30;2.08;;;;;;;;;;10283442;28;20032;-68
2021/01/03 17:13:39;;;;;;;3.95;2.55;;;;;;;;;;10299705;28;20615;-68
2021/01/03 17:18:55;;;;;;;2.83;2.13;;;;;;;;;;10252684;28;20075;-67
2021/01/03 17:23:52;;;;;;;5.25;3.28;;;;;;;;;;10289441;28;20056;-69
2021/01/03 17:29:02;;;;;;;6.80;3.23;;;;;;;;;;10305895;28;20041;-66
2021/01/03 17:33:59;;;;;;;4.78;2.92;;;;;;;;;;10312908;28;20080;-68
2021/01/03 17:38:58;;;;;;;4.23;2.00;;;;;;;;;;10316032;28;20140;-68
2021/01/03 17:44:03;;;;;;;8.02;2.75;;;;;;;;;;10329574;28;20044;-69
2021/01/03 17:49:08;;;;;;;8.13;2.65;;;;;;;;;;10328602;28;20404;-69
2021/01/03 17:54:10;;;;;;;6.20;3.08;;;;;;;;;;10312793;28;20108;-67
2021/01/03 17:59:07;;;;;;;2.85;1.98;;;;;;;;;;10322457;28;20045;-67
2021/01/03 18:04:05;;;;;;;2.80;2.47;;;;;;;;;;10315619;28;20700;-67
2021/01/03 18:09:02;;;;;;;3.00;2.43;;;;;;;;;;10306696;28;20411;-68
2021/01/03 18:14:01;;;;;;;4.73;2.57;;;;;;;;;;10299506;28;20045;-68
2021/01/03 18:18:59;;;;;;;6.07;2.50;;;;;;;;;;10310982;28;20049;-67
2021/01/03 18:23:56;;;;;;;5.90;3.00;;;;;;;;;;10293059;28;20695;-67
2021/01/03 18:28:54;;;;;;;7.33;3.23;;;;;;;;;;10284688;28;20037;-68
2021/01/03 18:33:51;;;;;;;6.07;3.13;;;;;;;;;;10321760;28;20057;-68
2021/01/03 18:38:49;;;;;;;6.80;3.23;;;;;;;;;;10307188;28;20052;-67
2021/01/03 18:43:46;;;;;;;6.47;3.77;;;;;;;;;;10329378;28;20040;-69
2021/01/03 18:48:45;;;;;;;5.13;2.70;;;;;;;;;;10295350;28;20725;-67
2021/01/03 18:53:42;;;;;;;;;;;;;;;;;;10316660;28;20149;-68
2021/01/03 18:58:41;;;;;;;8.23;3.30;;;;;;;;;;10301087;28;20562;-66
2021/01/03 19:03:38;;;;;;;7.93;2.70;;;;;;;;;;10313982;28;20274;-66
2021/01/03 19:08:35;;;;;;;5.40;3.20;;;;;;;;;;10322210;28;20491;-67
2021/01/03 19:13:33;;;;;;;3.50;2.93;;;;;;;;;;10310343;28;20053;-67
2021/01/03 19:18:30;;;;;;;6.23;2.73;;;;;;;;;;10317173;28;20045;-66
2021/01/03 19:23:28;;;;;;;5.23;2.90;;;;;;;;;;10299895;28;20045;-67
2021/01/03 19:28:25;;;;;;;9.40;3.43;;;;;;;;;;10312320;28;20048;-67
2021/01/03 19:33:22;;;;;;;9.23;2.83;;;;;;;;;;10285448;28;20052;-66
2021/01/03 19:38:20;;;;;;;5.13;2.83;;;;;;;;;;10297225;28;20037;-63
2021/01/03 19:43:17;;;;;;;7.73;3.03;;;;;;;;;;10311124;28;20120;-65
2021/01/03 19:48:15;;;;;;;7.27;3.10;;;;;;;;;;10307132;28;20065;-64
2021/01/03 19:53:13;;;;;;;5.75;3.20;;;;;;;;;;10299982;28;20094;-65
2021/01/03 19:58:11;;;;;;;6.17;2.30;;;;;;;;;;10303329;28;20087;-64
2021/01/03 20:03:09;;;;;;;5.07;2.40;;;;;;;;;;10298290;28;20041;-65
2021/01/03 20:08:06;;;;;;;5.93;3.00;;;;;;;;;;10316798;28;20045;-63
2021/01/03 20:13:04;;;;;;;6.70;2.73;;;;;;;;;;10297483;28;20033;-64
2021/01/03 20:18:01;;;;;;;8.10;3.10;;;;;;;;;;10307620;28;20025;-65
2021/01/03 20:22:59;;;;;;;5.43;3.27;;;;;;;;;;10308437;28;20041;-65
2021/01/03 20:27:56;;;;;;;5.00;2.73;;;;;;;;;;10304224;28;20013;-65
2021/01/03 20:32:54;;;;;;;7.53;3.30;;;;;;;;;;10304367;28;20976;-62
2021/01/03 20:37:51;;;;;;;7.70;3.10;;;;;;;;;;10315660;28;20047;-66
2021/01/03 20:42:48;;;;;;;6.00;2.50;;;;;;;;;;10325504;28;20385;-66
2021/01/03 20:47:46;;;;;;;3.77;2.67;;;;;;;;;;10312758;28;20040;-66
2021/01/03 20:52:44;;;;;;;6.47;3.13;;;;;;;;;;10307051;28;20446;-67
2021/01/03 20:57:41;;;;;;;4.73;2.83;;;;;;;;;;10313046;28;20163;-68
2021/01/03 21:02:38;;;;;;;5.30;2.30;;;;;;;;;;10300588;28;20490;-68
2021/01/03 21:07:36;;;;;;;5.07;2.20;;;;;;;;;;10312963;28;20053;-68
2021/01/03 21:12:33;;;;;;;3.37;2.23;;;;;;;;;;10293960;28;20383;-68
2021/01/03 21:17:31;;;;;;;6.37;2.63;;;;;;;;;;10307380;28;20029;-68
2021/01/03 21:22:29;;;;;;;3.67;2.33;;;;;;;;;;10316476;28;20020;-68
2021/01/03 21:27:27;;;;;;;5.13;1.98;;;;;;;;;;10290765;28;20030;-68
2021/01/03 21:32:24;;;;;;;2.50;1.77;;;;;;;;;;10317038;28;20035;-67
2021/01/03 21:37:26;;;;;;;2.93;1.60;;;;;;;;;;10315171;28;20113;-67
2021/01/03 21:42:47;;;;;;;3.60;1.90;;;;;;;;;;10319176;28;20017;-67
2021/01/03 21:47:50;;;;;;;2.13;1.85;;;;;;;;;;10298329;28;21330;-67
2021/01/03 21:53:06;;;;;;;3.63;1.60;;;;;;;;;;10314475;28;20049;-68
2021/01/03 21:58:36;;;;;;;3.85;1.90;;;;;;;;;;10316867;28;20125;-67
2021/01/03 22:03:52;;;;;;;4.20;2.25;;;;;;;;;;10264237;28;22327;-68
2021/01/03 22:09:04;;;;;;;1.80;1.23;;;;;;;;;;10313452;28;20032;-68
2021/01/03 22:14:09;;;;;;;3.42;1.85;;;;;;;;;;10313999;28;20037;-67
2021/01/03 22:19:26;;;;;;;2.70;1.65;;;;;;;;;;10299953;28;20118;-67
2021/01/03 22:24:37;;;;;;;2.88;1.63;;;;;;;;;;10305307;28;20098;-68
2021/01/03 22:29:48;;;;;;;2.88;1.20;;;;;;;;;;10320018;28;20037;-68
2021/01/03 22:34:45;;;;;;;2.13;1.40;;;;;;;;;;10321858;28;20048;-67
2021/01/03 22:39:53;;;;;;;5.47;1.77;;;;;;;;;;10320207;28;20048;-68
2021/01/03 22:44:51;;;;;;;4.80;1.95;;;;;;;;;;10316169;28;20033;-68
2021/01/03 22:49:54;;;;;;;3.20;1.90;;;;;;;;;;10306209;28;20418;-66
2021/01/03 22:54:58;;;;;;;2.38;1.40;;;;;;;;;;10301254;28;20648;-66
2021/01/03 23:00:21;;;;;;;6.57;2.03;;;;;;;;;;10322548;28;20048;-67
2021/01/03 23:05:27;;;;;;;2.22;1.25;;;;;;;;;;10306877;28;21542;-67
2021/01/03 23:10:27;;;;;;;5.10;2.17;;;;;;;;;;10293046;28;20044;-67
2021/01/03 23:15:44;;;;;;;3.10;1.40;;;;;;;;;;10306768;28;20079;-67
2021/01/03 23:20:41;;;;;;;4.60;1.70;;;;;;;;;;10307766;28;20033;-66
2021/01/03 23:25:53;;;;;;;1.50;1.17;;;;;;;;;;10316580;28;20783;-66
2021/01/03 23:30:53;;;;;;;3.65;1.60;;;;;;;;;;10301703;28;20044;-66
2021/01/03 23:35:56;;;;;;;2.15;1.30;;;;;;;;;;10309268;28;20500;-67
2021/01/03 23:40:59;;;;;;;2.58;1.35;;;;;;;;;;10319397;28;20033;-68
2021/01/03 23:45:58;;;;;;;3.88;1.38;;;;;;;;;;10322117;28;20041;-64
2021/01/03 23:50:59;;;;;;;5.07;1.70;;;;;;;;;;10320444;28;20450;-65
2021/01/03 23:56:05;;;;;;;5.32;1.98;;;;;;;;;;10324477;28;20037;-64
